createdAt,value
2018-09-08T00:01:58.185Z,79.82
2018-09-08T00:04:27.946Z,80.38
2018-09-08T00:07:03.190Z,80.42
2018-09-08T00:09:32.919Z,80.49
2018-09-08T00:12:02.565Z,80.48
2018-09-08T00:14:32.299Z,80.72
2018-09-08T00:17:07.107Z,80.30
2018-09-08T00:19:41.951Z,80.10
2018-09-08T00:22:16.751Z,80.81
2018-09-08T00:24:51.911Z,80.46
2018-09-08T00:27:30.606Z,80.82
2018-09-08T00:30:04.334Z,80.35
2018-09-08T00:32:33.988Z,80.47
2018-09-08T00:35:03.770Z,80.32
2018-09-08T00:37:33.310Z,79.46
2018-09-08T00:40:03.013Z,80.28
2018-09-08T00:42:32.774Z,80.26
2018-09-08T00:45:02.291Z,80.06
2018-09-08T00:47:32.062Z,80.04
2018-09-08T00:50:01.659Z,80.28
2018-09-08T00:52:31.239Z,80.05
2018-09-08T00:55:01.458Z,80.32
2018-09-08T00:57:31.158Z,79.91
2018-09-08T01:00:00.880Z,79.95
2018-09-08T01:02:30.571Z,79.69
2018-09-08T01:05:00.405Z,80.24
2018-09-08T01:07:30.391Z,79.72
2018-09-08T01:10:01.139Z,79.37
2018-09-08T01:12:31.385Z,80.09
2018-09-08T01:15:01.696Z,79.63
2018-09-08T01:17:31.487Z,79.58
2018-09-08T01:20:01.106Z,80.12
2018-09-08T01:22:30.743Z,79.56
2018-09-08T01:25:00.487Z,79.43
2018-09-08T01:27:30.111Z,80.15
2018-09-08T01:29:59.843Z,80.86
2018-09-08T01:32:29.338Z,80.29
2018-09-08T01:34:59.046Z,80.48
2018-09-08T01:37:28.732Z,81.08
2018-09-08T01:39:58.477Z,80.86
2018-09-08T01:42:28.046Z,80.89
2018-09-08T01:44:57.685Z,81.33
2018-09-08T01:47:27.635Z,80.98
2018-09-08T01:49:57.626Z,80.98
2018-09-08T01:52:27.406Z,81.13
2018-09-08T01:54:57.068Z,81.22
2018-09-08T01:57:26.847Z,81.24
2018-09-08T01:59:56.605Z,81.01
2018-09-08T02:02:26.251Z,80.68
2018-09-08T02:04:55.979Z,80.72
2018-09-08T02:07:25.582Z,80.81
2018-09-08T02:09:55.295Z,80.75
2018-09-08T02:12:25.016Z,80.17
2018-09-08T02:14:54.811Z,80.57
2018-09-08T02:17:24.483Z,80.29
2018-09-08T02:19:54.307Z,81.04
2018-09-08T02:22:24.255Z,80.47
2018-09-08T02:24:54.231Z,80.75
2018-09-08T02:27:24.088Z,80.42
2018-09-08T02:29:54.004Z,80.58
2018-09-08T02:32:23.715Z,80.88
2018-09-08T02:34:53.324Z,80.97
2018-09-08T02:37:22.924Z,81.05
2018-09-08T02:39:52.604Z,81.07
2018-09-08T02:42:22.150Z,81.09
2018-09-08T02:44:51.819Z,80.99
2018-09-08T02:47:21.565Z,81.06
2018-09-08T02:50:08.031Z,81.23
2018-09-08T02:52:35.894Z,81.24
2018-09-08T02:55:03.711Z,80.90
2018-09-08T02:57:31.559Z,80.66
2018-09-08T02:59:59.366Z,80.54
2018-09-08T03:02:27.222Z,80.46
2018-09-08T03:04:55.042Z,80.97
2018-09-08T03:07:23.017Z,80.82
2018-09-08T03:09:50.842Z,80.75
2018-09-08T03:12:18.871Z,80.71
2018-09-08T03:14:46.705Z,81.12
2018-09-08T03:17:14.523Z,81.25
2018-09-08T03:19:42.383Z,81.59
2018-09-08T03:22:10.230Z,81.47
2018-09-08T03:24:38.084Z,81.37
2018-09-08T03:27:05.911Z,81.51
2018-09-08T03:29:33.754Z,81.33
2018-09-08T03:32:01.595Z,81.07
2018-09-08T03:34:29.436Z,81.18
2018-09-08T03:36:57.266Z,80.68
2018-09-08T03:39:25.122Z,80.95
2018-09-08T03:41:52.963Z,80.40
2018-09-08T03:44:20.810Z,80.80
2018-09-08T03:46:48.639Z,81.17
2018-09-08T03:49:16.487Z,81.37
2018-09-08T03:51:44.422Z,80.68
2018-09-08T03:54:12.230Z,80.55
2018-09-08T03:56:40.078Z,81.53
2018-09-08T03:59:07.987Z,81.19
2018-09-08T04:01:35.968Z,81.24
2018-09-08T04:04:05.543Z,80.79
2018-09-08T04:06:35.234Z,80.54
2018-09-08T04:09:07.658Z,81.09
2018-09-08T04:11:37.793Z,81.71
2018-09-08T04:14:07.810Z,81.35
2018-09-08T04:16:37.390Z,81.78
2018-09-08T04:19:07.743Z,81.76
2018-09-08T04:21:37.419Z,81.50
2018-09-08T04:24:07.049Z,80.80
2018-09-08T04:26:36.844Z,81.23
2018-09-08T04:29:06.532Z,81.01
2018-09-08T04:31:36.171Z,80.81
2018-09-08T04:34:05.847Z,80.67
2018-09-08T04:36:35.555Z,80.70
2018-09-08T04:39:08.083Z,80.46
2018-09-08T04:41:37.997Z,80.99
2018-09-08T04:44:08.062Z,81.63
2018-09-08T04:46:37.698Z,81.60
2018-09-08T04:49:07.437Z,80.15
2018-09-08T04:51:37.320Z,80.50
2018-09-08T04:54:06.994Z,80.65
2018-09-08T04:56:36.790Z,81.34
2018-09-08T04:59:06.507Z,81.59
2018-09-08T05:01:36.131Z,81.59
2018-09-08T05:04:06.366Z,80.44
2018-09-08T05:06:35.901Z,81.01
2018-09-08T05:09:09.030Z,81.90
2018-09-08T05:11:38.803Z,80.78
2018-09-08T05:14:08.640Z,80.78
2018-09-08T05:16:38.319Z,81.18
2018-09-08T05:19:07.972Z,80.47
2018-09-08T05:21:37.518Z,80.23
2018-09-08T05:24:07.218Z,79.46
2018-09-08T05:26:36.728Z,79.02
2018-09-08T05:29:06.641Z,78.60
2018-09-08T05:31:36.152Z,77.72
2018-09-08T05:34:05.678Z,77.63
2018-09-08T05:36:35.218Z,77.16
2018-09-08T05:39:05.502Z,76.31
2018-09-08T05:41:35.014Z,76.41
2018-09-08T05:44:04.543Z,75.20
2018-09-08T05:46:34.039Z,75.27
2018-09-08T05:49:03.584Z,73.43
2018-09-08T05:51:33.093Z,73.43
2018-09-08T05:54:02.661Z,73.26
2018-09-08T05:56:32.179Z,71.58
2018-09-08T05:59:01.726Z,71.20
2018-09-08T06:01:31.250Z,71.59
2018-09-08T06:04:00.808Z,71.34
2018-09-08T06:06:30.329Z,69.71
2018-09-08T06:08:59.839Z,70.01
2018-09-08T06:11:29.371Z,69.58
2018-09-08T06:13:58.918Z,70.44
2018-09-08T06:16:28.459Z,70.07
2018-09-08T06:18:58.025Z,68.68
2018-09-08T06:21:27.554Z,68.77
2018-09-08T06:23:57.407Z,68.62
2018-09-08T06:26:26.971Z,68.29
2018-09-08T06:28:56.772Z,67.87
2018-09-08T06:31:26.301Z,67.23
2018-09-08T06:33:56.116Z,68.13
2018-09-08T06:36:25.791Z,68.17
2018-09-08T06:38:55.365Z,68.05
2018-09-08T06:41:24.892Z,67.83
2018-09-08T06:43:54.450Z,66.90
2018-09-08T06:46:24.000Z,66.84
2018-09-08T06:48:53.719Z,67.06
2018-09-08T06:51:23.279Z,67.14
2018-09-08T06:53:52.842Z,66.16
2018-09-08T06:56:22.569Z,65.99
2018-09-08T06:58:52.171Z,66.78
2018-09-08T07:01:21.795Z,67.76
2018-09-08T07:03:51.375Z,66.17
2018-09-08T07:06:21.214Z,65.15
2018-09-08T07:08:50.816Z,65.98
2018-09-08T07:11:20.609Z,65.27
2018-09-08T07:13:50.314Z,64.61
2018-09-08T07:16:20.135Z,62.80
2018-09-08T07:18:49.915Z,62.23
2018-09-08T07:21:19.657Z,61.98
2018-09-08T07:23:49.465Z,58.63
2018-09-08T07:26:19.266Z,60.55
2018-09-08T07:28:49.076Z,60.44
2018-09-08T07:31:18.800Z,59.00
2018-09-08T07:33:51.508Z,59.49
2018-09-08T07:36:21.330Z,60.38
2018-09-08T07:38:50.982Z,58.16
2018-09-08T07:41:20.686Z,59.38
2018-09-08T07:43:50.347Z,58.19
2018-09-08T07:46:20.108Z,59.78
2018-09-08T07:48:49.712Z,58.79
2018-09-08T07:51:19.546Z,58.67
2018-09-08T07:53:49.313Z,58.72
2018-09-08T07:56:19.146Z,56.22
2018-09-08T07:58:48.804Z,58.27
2018-09-08T08:01:18.580Z,54.26
2018-09-08T08:03:48.210Z,54.10
2018-09-08T08:06:17.899Z,55.15
2018-09-08T08:08:47.520Z,56.71
2018-09-08T08:11:17.112Z,53.62
2018-09-08T08:13:46.683Z,55.21
2018-09-08T08:16:16.258Z,55.55
2018-09-08T08:18:45.935Z,54.87
2018-09-08T08:21:15.513Z,54.42
2018-09-08T08:23:45.461Z,54.28
2018-09-08T08:26:15.065Z,55.13
2018-09-08T08:28:44.644Z,54.73
2018-09-08T08:31:14.183Z,54.24
2018-09-08T08:33:44.238Z,53.32
2018-09-08T08:36:14.334Z,55.40
2018-09-08T08:38:44.132Z,52.65
2018-09-08T08:41:13.832Z,53.55
2018-09-08T08:43:43.448Z,51.68
2018-09-08T08:46:13.910Z,52.33
2018-09-08T08:48:43.560Z,52.02
2018-09-08T08:51:29.986Z,49.89
2018-09-08T08:54:12.897Z,51.34
2018-09-08T08:56:42.695Z,50.88
2018-09-08T08:59:12.343Z,49.01
2018-09-08T09:01:42.308Z,50.57
2018-09-08T09:04:12.688Z,49.23
2018-09-08T09:06:42.751Z,49.85
2018-09-08T09:09:14.567Z,50.06
2018-09-08T09:11:44.942Z,49.95
2018-09-08T09:14:14.910Z,49.77
2018-09-08T09:16:44.451Z,49.25
2018-09-08T09:19:43.455Z,49.37
2018-09-08T09:22:30.279Z,49.34
2018-09-08T09:25:04.386Z,48.01
2018-09-08T09:27:35.480Z,46.35
2018-09-08T09:30:05.830Z,48.08
2018-09-08T09:32:35.604Z,47.82
2018-09-08T09:35:05.448Z,49.10
2018-09-08T09:37:35.004Z,47.84
2018-09-08T09:40:04.976Z,48.15
2018-09-08T09:42:35.816Z,49.13
2018-09-08T09:45:05.739Z,47.53
2018-09-08T09:47:35.298Z,46.84
2018-09-08T09:50:05.398Z,47.14
2018-09-08T09:52:35.091Z,47.11
2018-09-08T09:55:05.130Z,46.77
2018-09-08T09:57:34.840Z,45.78
2018-09-08T10:00:05.239Z,47.73
2018-09-08T10:02:38.906Z,46.77
2018-09-08T10:05:14.345Z,46.67
2018-09-08T10:07:43.986Z,44.87
2018-09-08T10:10:16.407Z,45.50
2018-09-08T10:12:46.251Z,46.44
2018-09-08T10:15:16.092Z,47.51
2018-09-08T10:17:46.110Z,46.78
2018-09-08T10:20:17.783Z,46.00
2018-09-08T10:22:47.739Z,47.98
2018-09-08T10:25:18.847Z,45.63
2018-09-08T10:27:49.178Z,46.42
2018-09-08T10:30:19.267Z,45.11
2018-09-08T10:32:49.023Z,45.04
2018-09-08T10:35:18.563Z,45.30
2018-09-08T10:37:48.147Z,45.49
2018-09-08T10:40:17.788Z,44.58
2018-09-08T10:42:47.457Z,46.57
2018-09-08T10:45:17.011Z,46.54
2018-09-08T10:47:46.772Z,45.72
2018-09-08T10:50:16.675Z,45.68
2018-09-08T10:52:48.628Z,46.00
2018-09-08T10:55:18.172Z,46.38
2018-09-08T10:57:47.746Z,44.91
2018-09-08T11:00:17.555Z,46.67
2018-09-08T11:02:47.594Z,45.80
2018-09-08T11:05:17.517Z,45.94
2018-09-08T11:07:47.315Z,45.11
2018-09-08T11:10:16.895Z,45.38
2018-09-08T11:12:46.499Z,45.29
2018-09-08T11:15:16.308Z,46.34
2018-09-08T11:17:45.907Z,45.71
2018-09-08T11:20:16.419Z,45.04
2018-09-08T11:22:46.077Z,47.66
2018-09-08T11:25:15.637Z,46.94
2018-09-08T11:27:45.194Z,44.47
2018-09-08T11:30:15.562Z,47.16
2018-09-08T11:32:45.367Z,47.37
2018-09-08T11:35:14.917Z,46.08
2018-09-08T11:37:44.474Z,46.08
2018-09-08T11:40:14.067Z,45.65
2018-09-08T11:42:43.932Z,46.54
2018-09-08T11:45:13.500Z,46.15
2018-09-08T11:47:43.204Z,46.54
2018-09-08T11:50:12.743Z,46.47
2018-09-08T11:52:42.439Z,44.04
2018-09-08T11:55:12.244Z,46.23
2018-09-08T11:57:41.849Z,44.74
2018-09-08T12:00:11.444Z,43.92
2018-09-08T12:02:40.991Z,43.51
2018-09-08T12:05:10.672Z,43.72
2018-09-08T12:07:40.280Z,43.91
2018-09-08T12:10:09.850Z,43.80
2018-09-08T12:12:39.408Z,44.39
2018-09-08T12:15:09.411Z,45.93
2018-09-08T12:17:39.723Z,44.96
2018-09-08T12:20:09.346Z,44.81
2018-09-08T12:22:39.958Z,45.51
2018-09-08T12:25:09.568Z,44.97
2018-09-08T12:27:39.127Z,43.45
2018-09-08T12:30:09.008Z,42.60
2018-09-08T12:32:38.567Z,44.06
2018-09-08T12:35:08.134Z,44.82
2018-09-08T12:37:37.715Z,43.89
2018-09-08T12:40:07.320Z,42.77
2018-09-08T12:42:36.911Z,43.34
2018-09-08T12:45:07.529Z,42.47
2018-09-08T12:47:37.060Z,43.77
2018-09-08T12:50:06.682Z,43.17
2018-09-08T12:52:36.235Z,43.70
2018-09-08T12:55:05.865Z,42.29
2018-09-08T12:57:35.442Z,44.39
2018-09-08T13:00:05.059Z,43.40
2018-09-08T13:02:34.830Z,43.43
2018-09-08T13:05:04.378Z,43.46
2018-09-08T13:07:33.960Z,43.18
2018-09-08T13:10:03.684Z,42.55
2018-09-08T13:12:33.471Z,43.86
2018-09-08T13:15:03.019Z,43.44
2018-09-08T13:17:32.579Z,42.90
2018-09-08T13:20:02.114Z,44.47
2018-09-08T13:22:33.003Z,44.45
2018-09-08T13:25:02.561Z,43.11
2018-09-08T13:27:32.128Z,42.53
2018-09-08T13:30:01.720Z,41.54
2018-09-08T13:32:31.269Z,41.79
2018-09-08T13:35:00.859Z,42.02
2018-09-08T13:37:30.468Z,42.61
2018-09-08T13:40:00.192Z,42.62
2018-09-08T13:42:30.007Z,42.99
2018-09-08T13:44:59.678Z,42.75
2018-09-08T13:47:29.393Z,43.95
2018-09-08T13:49:59.100Z,43.75
2018-09-08T13:52:28.684Z,42.77
2018-09-08T13:54:58.286Z,44.14
2018-09-08T13:57:27.847Z,44.43
2018-09-08T13:59:57.547Z,44.49
2018-09-08T14:02:27.199Z,44.20
2018-09-08T14:04:57.266Z,42.96
2018-09-08T14:07:27.023Z,43.33
2018-09-08T14:09:56.655Z,44.29
2018-09-08T14:12:26.237Z,44.60
2018-09-08T14:14:55.797Z,44.28
2018-09-08T14:17:25.384Z,44.54
2018-09-08T14:19:55.169Z,44.52
2018-09-08T14:22:24.715Z,44.24
2018-09-08T14:24:54.315Z,43.98
2018-09-08T14:27:23.971Z,44.78
2018-09-08T14:29:53.772Z,44.25
2018-09-08T14:32:23.359Z,44.49
2018-09-08T14:34:52.936Z,43.28
2018-09-08T14:37:22.491Z,43.63
2018-09-08T14:39:52.139Z,44.03
2018-09-08T14:42:21.639Z,44.05
2018-09-08T14:44:51.215Z,43.97
2018-09-08T14:47:20.813Z,43.75
2018-09-08T14:49:50.584Z,44.26
2018-09-08T14:52:20.140Z,44.29
2018-09-08T14:54:49.663Z,44.32
2018-09-08T14:57:19.225Z,43.87
2018-09-08T14:59:49.012Z,43.07
2018-09-08T15:02:19.001Z,43.82
2018-09-08T15:04:48.665Z,43.95
2018-09-08T15:07:18.367Z,44.33
2018-09-08T15:09:47.959Z,43.66
2018-09-08T15:12:17.631Z,43.28
2018-09-08T15:14:47.200Z,43.83
2018-09-08T15:17:16.832Z,43.66
2018-09-08T15:19:46.399Z,43.83
2018-09-08T15:22:16.217Z,44.20
2018-09-08T15:24:45.860Z,43.72
2018-09-08T15:27:15.420Z,43.43
2018-09-08T15:29:44.993Z,43.84
2018-09-08T15:32:14.763Z,44.21
2018-09-08T15:34:44.343Z,43.25
2018-09-08T15:37:14.170Z,43.83
2018-09-08T15:39:43.813Z,45.05
2018-09-08T15:42:13.427Z,44.78
2018-09-08T15:44:42.960Z,44.23
2018-09-08T15:47:12.518Z,45.68
2018-09-08T15:49:42.095Z,45.63
2018-09-08T15:52:11.841Z,45.51
2018-09-08T15:54:41.400Z,45.61
2018-09-08T15:57:10.964Z,45.64
2018-09-08T15:59:41.464Z,45.54
2018-09-08T16:02:11.158Z,44.59
2018-09-08T16:04:40.950Z,44.91
2018-09-08T16:07:10.512Z,44.14
2018-09-08T16:09:40.246Z,45.56
2018-09-08T16:12:10.003Z,44.68
2018-09-08T16:14:39.936Z,44.02
2018-09-08T16:17:11.362Z,44.35
2018-09-08T16:19:40.947Z,44.55
2018-09-08T16:22:10.595Z,45.01
2018-09-08T16:24:40.452Z,45.26
2018-09-08T16:27:09.990Z,44.41
2018-09-08T16:29:40.515Z,45.25
2018-09-08T16:32:10.227Z,44.24
2018-09-08T16:34:39.781Z,44.64
2018-09-08T16:37:09.278Z,44.80
2018-09-08T16:39:38.859Z,44.66
2018-09-08T16:42:08.411Z,44.93
2018-09-08T16:44:37.990Z,44.52
2018-09-08T16:47:07.532Z,45.66
2018-09-08T16:49:37.105Z,45.95
2018-09-08T16:52:06.704Z,45.28
2018-09-08T16:54:36.532Z,46.01
2018-09-08T16:57:06.236Z,47.09
2018-09-08T16:59:35.837Z,47.51
2018-09-08T17:02:05.479Z,48.34
2018-09-08T17:04:35.067Z,48.09
2018-09-08T17:07:04.831Z,48.41
2018-09-08T17:09:34.471Z,49.15
2018-09-08T17:12:04.067Z,48.61
2018-09-08T17:14:33.599Z,48.55
2018-09-08T17:17:05.827Z,48.46
2018-09-08T17:19:35.386Z,48.92
2018-09-08T17:22:04.959Z,48.90
2018-09-08T17:24:34.525Z,50.14
2018-09-08T17:27:04.086Z,49.87
2018-09-08T17:29:33.623Z,52.10
2018-09-08T17:32:03.224Z,52.74
2018-09-08T17:34:32.844Z,53.67
2018-09-08T17:37:02.619Z,54.00
2018-09-08T17:39:32.168Z,52.89
2018-09-08T17:42:01.763Z,54.98
2018-09-08T17:44:31.364Z,55.16
2018-09-08T17:47:00.979Z,54.16
2018-09-08T17:49:30.511Z,54.30
2018-09-08T17:52:00.134Z,54.28
2018-09-08T17:54:29.811Z,53.96
2018-09-08T17:56:59.399Z,54.61
2018-09-08T17:59:28.965Z,55.33
2018-09-08T18:01:58.555Z,55.59
2018-09-08T18:04:28.113Z,55.77
2018-09-08T18:06:57.681Z,53.94
2018-09-08T18:09:27.236Z,55.36
2018-09-08T18:11:56.828Z,55.09
2018-09-08T18:14:26.542Z,54.31
2018-09-08T18:16:56.124Z,55.78
2018-09-08T18:19:25.708Z,56.29
2018-09-08T18:21:55.232Z,56.31
2018-09-08T18:24:24.799Z,57.05
2018-09-08T18:26:54.394Z,58.03
2018-09-08T18:29:23.983Z,57.24
2018-09-08T18:31:53.778Z,57.30
2018-09-08T18:34:23.343Z,57.21
2018-09-08T18:36:52.947Z,58.09
2018-09-08T18:39:22.731Z,59.42
2018-09-08T18:41:52.553Z,59.53
2018-09-08T18:44:22.143Z,59.85
2018-09-08T18:46:51.803Z,59.88
2018-09-08T18:49:21.409Z,60.03
2018-09-08T18:51:51.049Z,60.32
2018-09-08T18:54:20.645Z,60.03
2018-09-08T18:56:50.222Z,60.62
2018-09-08T18:59:19.874Z,59.92
2018-09-08T19:01:49.484Z,60.33
2018-09-08T19:04:19.238Z,61.04
2018-09-08T19:06:49.095Z,61.48
2018-09-08T19:09:18.705Z,61.36
2018-09-08T19:11:48.312Z,62.61
2018-09-08T19:14:22.910Z,62.13
2018-09-08T19:16:52.487Z,62.26
2018-09-08T19:19:22.094Z,62.44
2018-09-08T19:21:51.705Z,63.13
2018-09-08T19:24:26.608Z,63.67
2018-09-08T19:26:56.260Z,63.08
2018-09-08T19:29:30.932Z,63.44
2018-09-08T19:32:00.533Z,63.78
2018-09-08T19:34:30.110Z,63.57
2018-09-08T19:36:59.680Z,63.31
2018-09-08T19:39:29.317Z,64.03
2018-09-08T19:41:58.949Z,64.32
2018-09-08T19:44:28.571Z,64.33
2018-09-08T19:47:03.451Z,64.52
2018-09-08T19:49:33.179Z,64.45
2018-09-08T19:52:02.967Z,65.20
2018-09-08T19:54:32.646Z,65.77
2018-09-08T19:57:07.351Z,65.51
2018-09-08T19:59:36.981Z,65.50
2018-09-08T20:02:06.768Z,65.24
2018-09-08T20:04:36.517Z,65.95
2018-09-08T20:07:06.868Z,65.41
2018-09-08T20:09:36.459Z,66.05
2018-09-08T20:12:06.618Z,66.91
2018-09-08T20:14:36.207Z,66.42
2018-09-08T20:17:06.151Z,66.76
2018-09-08T20:19:35.779Z,66.92
2018-09-08T20:22:06.418Z,66.77
2018-09-08T20:24:36.039Z,66.82
2018-09-08T20:27:06.119Z,67.32
2018-09-08T20:29:35.763Z,66.67
2018-09-08T20:32:05.312Z,67.00
2018-09-08T20:34:35.191Z,67.33
2018-09-08T20:37:04.759Z,67.49
2018-09-08T20:39:34.593Z,68.27
2018-09-08T20:42:05.117Z,68.34
2018-09-08T20:44:34.681Z,67.86
2018-09-08T20:47:04.245Z,68.42
2018-09-08T20:49:33.844Z,68.41
2018-09-08T20:52:03.412Z,68.34
2018-09-08T20:54:32.976Z,68.62
2018-09-08T20:57:02.499Z,68.70
2018-09-08T20:59:32.280Z,68.61
2018-09-08T21:02:01.834Z,69.49
2018-09-08T21:04:31.425Z,69.22
2018-09-08T21:07:01.224Z,69.46
2018-09-08T21:09:30.846Z,68.75
2018-09-08T21:12:00.765Z,69.08
2018-09-08T21:14:30.364Z,69.11
2018-09-08T21:16:59.887Z,69.63
2018-09-08T21:19:29.526Z,69.92
2018-09-08T21:21:59.221Z,69.72
2018-09-08T21:24:28.904Z,70.35
2018-09-08T21:26:58.506Z,69.91
2018-09-08T21:29:28.148Z,69.83
2018-09-08T21:31:57.771Z,69.61
2018-09-08T21:34:27.386Z,70.05
2018-09-08T21:36:56.929Z,69.95
2018-09-08T21:39:26.500Z,70.84
2018-09-08T21:41:56.135Z,70.85
2018-09-08T21:44:25.794Z,70.48
2018-09-08T21:46:55.559Z,70.90
2018-09-08T21:49:25.109Z,71.19
2018-09-08T21:51:54.878Z,71.04
2018-09-08T21:54:24.392Z,70.63
2018-09-08T21:56:54.019Z,70.83
2018-09-08T21:59:23.678Z,70.28
2018-09-08T22:01:53.243Z,70.43
2018-09-08T22:04:22.802Z,70.77
2018-09-08T22:06:52.430Z,71.59
2018-09-08T22:09:22.014Z,71.60
2018-09-08T22:11:51.602Z,71.59
2018-09-08T22:14:21.143Z,71.52
2018-09-08T22:16:50.716Z,71.87
2018-09-08T22:19:20.294Z,72.26
2018-09-08T22:21:49.996Z,72.03
2018-09-08T22:24:19.544Z,71.36
2018-09-08T22:26:49.123Z,71.79
2018-09-08T22:29:18.664Z,71.52
2018-09-08T22:31:48.429Z,71.80
2018-09-08T22:34:17.995Z,71.66
2018-09-08T22:36:47.562Z,72.10
2018-09-08T22:39:17.284Z,71.92
2018-09-08T22:41:46.834Z,71.97
2018-09-08T22:44:16.380Z,72.21
2018-09-08T22:46:45.944Z,72.06
2018-09-08T22:49:15.491Z,71.77
2018-09-08T22:51:45.024Z,72.05
2018-09-08T22:54:14.664Z,72.23
2018-09-08T22:56:44.281Z,72.57
2018-09-08T22:59:14.067Z,72.70
2018-09-08T23:01:43.614Z,73.31
2018-09-08T23:04:13.190Z,72.89
2018-09-08T23:06:42.700Z,72.59
2018-09-08T23:09:12.239Z,72.38
2018-09-08T23:11:41.787Z,73.02
2018-09-08T23:14:11.331Z,73.21
2018-09-08T23:16:40.948Z,73.35
2018-09-08T23:19:10.519Z,73.49
2018-09-08T23:21:40.197Z,73.91
2018-09-08T23:24:09.855Z,73.25
2018-09-08T23:26:39.433Z,73.47
2018-09-08T23:29:08.978Z,73.05
2018-09-08T23:31:38.533Z,73.84
2018-09-08T23:34:08.099Z,74.00
2018-09-08T23:36:37.879Z,73.80
2018-09-08T23:39:08.157Z,74.02
2018-09-08T23:41:37.790Z,73.95
2018-09-08T23:44:07.364Z,73.95
2018-09-08T23:46:36.914Z,73.98
2018-09-08T23:49:06.480Z,73.98
2018-09-08T23:51:35.974Z,74.16
2018-09-08T23:54:05.576Z,74.39
2018-09-08T23:56:35.139Z,74.35
2018-09-08T23:59:05.568Z,74.58
